createdAt,value
2023-02-17T00:01:20.122Z,5.27
2023-02-17T00:04:22.149Z,5.97
2023-02-17T00:07:24.053Z,6.23
2023-02-17T00:10:25.932Z,7.60
2023-02-17T00:13:28.129Z,6.60
2023-02-17T00:16:30.321Z,6.43
2023-02-17T00:19:32.299Z,5.80
2023-02-17T00:22:34.221Z,5.93
2023-02-17T00:25:38.544Z,7.10
2023-02-17T00:28:40.853Z,6.83
2023-02-17T00:31:43.480Z,7.17
2023-02-17T00:34:45.592Z,7.90
2023-02-17T00:37:48.837Z,6.70
2023-02-17T00:40:51.448Z,5.43
2023-02-17T00:43:53.494Z,6.33
2023-02-17T00:46:57.212Z,7.73
2023-02-17T00:49:59.187Z,7.50
2023-02-17T00:53:02.216Z,6.33
2023-02-17T00:56:05.179Z,5.97
2023-02-17T00:59:08.332Z,6.37
2023-02-17T01:02:11.133Z,8.90
2023-02-17T01:05:13.074Z,6.17
2023-02-17T01:08:16.509Z,8.07
2023-02-17T01:11:20.638Z,8.60
2023-02-17T01:14:22.559Z,9.13
2023-02-17T01:17:24.546Z,7.70
2023-02-17T01:20:29.383Z,9.00
2023-02-17T01:23:31.336Z,7.67
2023-02-17T01:26:34.602Z,7.13
2023-02-17T01:29:36.542Z,10.23
2023-02-17T01:32:38.812Z,9.63
2023-02-17T01:35:40.810Z,9.33
2023-02-17T01:38:43.270Z,8.07
2023-02-17T01:41:45.239Z,9.70
2023-02-17T01:45:18.891Z,10.07
2023-02-17T01:48:45.027Z,8.83
2023-02-17T01:52:00.234Z,8.87
2023-02-17T01:55:10.653Z,10.83
2023-02-17T01:58:16.040Z,9.87
2023-02-17T02:01:18.342Z,12.10
2023-02-17T02:04:24.685Z,8.97
2023-02-17T02:07:32.264Z,11.03
2023-02-17T02:10:34.250Z,13.17
2023-02-17T02:13:36.290Z,10.50
2023-02-17T02:17:23.903Z,10.90
2023-02-17T02:20:47.801Z,10.87
2023-02-17T02:24:17.193Z,7.80
2023-02-17T02:27:31.352Z,9.90
2023-02-17T02:31:31.836Z,10.87
2023-02-17T02:34:48.195Z,9.27
2023-02-17T02:38:08.275Z,8.13
2023-02-17T02:41:20.626Z,8.23
2023-02-17T02:44:23.057Z,6.70
2023-02-17T02:47:54.811Z,8.67
2023-02-17T02:51:08.216Z,8.43
2023-02-17T02:54:10.351Z,8.13
2023-02-17T02:57:57.979Z,8.87
2023-02-17T03:01:40.219Z,8.57
2023-02-17T03:04:45.112Z,8.47
2023-02-17T03:08:03.820Z,8.27
2023-02-17T03:11:06.900Z,7.50
2023-02-17T03:14:14.635Z,6.43
2023-02-17T03:17:16.659Z,7.23
2023-02-17T03:20:19.160Z,6.57
2023-02-17T03:23:22.007Z,5.20
2023-02-17T03:26:24.450Z,8.10
2023-02-17T03:29:26.489Z,5.27
2023-02-17T03:32:28.601Z,8.07
2023-02-17T03:35:30.631Z,6.83
2023-02-17T03:38:32.561Z,7.23
2023-02-17T03:41:34.534Z,6.77
2023-02-17T03:44:36.591Z,7.63
2023-02-17T03:47:38.575Z,5.57
2023-02-17T03:50:40.524Z,7.23
2023-02-17T03:53:43.857Z,5.70
2023-02-17T03:56:45.810Z,7.07
2023-02-17T03:59:47.760Z,6.57
2023-02-17T04:02:49.707Z,4.67
2023-02-17T04:05:51.837Z,5.70
2023-02-17T04:08:53.927Z,5.37
2023-02-17T04:11:55.873Z,5.13
2023-02-17T04:14:57.884Z,11.37
2023-02-17T04:17:59.852Z,8.43
2023-02-17T04:21:02.178Z,7.57
2023-02-17T04:24:04.656Z,5.57
2023-02-17T04:27:06.923Z,7.60
2023-02-17T04:30:12.220Z,9.13
2023-02-17T04:33:15.425Z,7.20
2023-02-17T04:36:18.716Z,7.53
2023-02-17T04:39:20.708Z,7.70
2023-02-17T04:42:22.698Z,7.03
2023-02-17T04:45:24.781Z,6.30
2023-02-17T04:48:27.206Z,6.20
2023-02-17T04:51:29.169Z,8.23
2023-02-17T04:54:31.129Z,7.87
2023-02-17T04:57:33.276Z,8.07
2023-02-17T05:00:35.830Z,5.37
2023-02-17T05:03:37.751Z,5.33
2023-02-17T05:06:39.769Z,5.10
2023-02-17T05:09:41.795Z,5.37
2023-02-17T05:12:43.882Z,6.40
2023-02-17T05:15:46.826Z,5.67
2023-02-17T05:18:48.792Z,4.50
2023-02-17T05:21:51.560Z,5.30
2023-02-17T05:24:53.759Z,3.53
2023-02-17T05:27:56.031Z,4.43
2023-02-17T05:30:57.999Z,2.80
2023-02-17T05:33:59.970Z,3.70
2023-02-17T05:37:02.229Z,3.60
2023-02-17T05:40:04.725Z,4.33
2023-02-17T05:43:06.730Z,3.47
2023-02-17T05:46:09.326Z,3.93
2023-02-17T05:49:11.650Z,3.50
2023-02-17T05:52:13.986Z,4.37
2023-02-17T05:55:16.014Z,4.47
2023-02-17T05:58:18.090Z,4.10
2023-02-17T06:01:20.343Z,5.23
2023-02-17T06:04:22.377Z,4.90
2023-02-17T06:07:24.380Z,5.00
2023-02-17T06:10:26.336Z,6.10
2023-02-17T06:13:28.243Z,5.97
2023-02-17T06:16:30.635Z,3.30
2023-02-17T06:19:32.660Z,4.60
2023-02-17T06:22:34.684Z,4.73
2023-02-17T06:25:36.733Z,3.67
2023-02-17T06:28:38.736Z,5.43
2023-02-17T06:31:40.950Z,6.53
2023-02-17T06:34:42.988Z,5.70
2023-02-17T06:37:44.902Z,3.77
2023-02-17T06:40:47.076Z,4.00
2023-02-17T06:43:49.100Z,4.00
2023-02-17T06:46:51.286Z,3.70
2023-02-17T06:49:53.256Z,3.30
2023-02-17T06:52:55.221Z,2.97
2023-02-17T06:55:57.337Z,4.60
2023-02-17T06:58:59.337Z,3.60
2023-02-17T07:02:02.557Z,6.93
2023-02-17T07:05:05.904Z,4.17
2023-02-17T07:08:07.948Z,4.03
2023-02-17T07:11:12.002Z,3.97
2023-02-17T07:14:14.051Z,4.13
2023-02-17T07:17:16.121Z,5.30
2023-02-17T07:20:18.322Z,8.77
2023-02-17T07:23:20.301Z,3.43
2023-02-17T07:26:22.598Z,4.23
2023-02-17T07:29:24.644Z,4.33
2023-02-17T07:32:26.586Z,3.60
2023-02-17T07:35:28.615Z,5.20
2023-02-17T07:38:31.630Z,6.40
2023-02-17T07:41:35.176Z,4.10
2023-02-17T07:44:43.740Z,6.30
2023-02-17T07:47:46.231Z,2.47
2023-02-17T07:50:48.124Z,6.10
2023-02-17T07:53:51.257Z,6.20
2023-02-17T07:56:53.230Z,3.70
2023-02-17T07:59:55.221Z,7.73
2023-02-17T08:02:57.120Z,5.57
2023-02-17T08:05:59.117Z,4.63
2023-02-17T08:09:19.798Z,3.03
2023-02-17T08:12:41.785Z,5.53
2023-02-17T08:15:43.846Z,4.73
2023-02-17T08:18:45.871Z,6.17
2023-02-17T08:21:48.102Z,3.93
2023-02-17T08:24:50.927Z,6.20
2023-02-17T08:27:54.607Z,3.83
2023-02-17T08:30:56.803Z,6.63
2023-02-17T08:34:01.458Z,4.33
2023-02-17T08:37:05.785Z,5.27
2023-02-17T08:40:08.536Z,6.90
2023-02-17T08:43:10.796Z,4.73
2023-02-17T08:46:14.634Z,4.80
2023-02-17T08:49:19.145Z,5.07
2023-02-17T08:52:21.205Z,3.47
2023-02-17T08:55:23.777Z,3.17
2023-02-17T08:58:25.890Z,5.23
2023-02-17T09:01:28.067Z,3.73
2023-02-17T09:04:30.150Z,7.23
2023-02-17T09:07:32.109Z,4.37
2023-02-17T09:10:34.175Z,5.33
2023-02-17T09:13:37.084Z,3.80
2023-02-17T09:16:41.382Z,3.60
2023-02-17T09:19:43.623Z,5.70
2023-02-17T09:22:45.673Z,4.07
2023-02-17T09:25:47.726Z,4.67
2023-02-17T09:28:49.776Z,4.50
2023-02-17T09:31:52.001Z,5.03
2023-02-17T09:34:54.317Z,4.63
2023-02-17T09:37:56.275Z,8.30
2023-02-17T09:41:14.672Z,3.67
2023-02-17T09:44:26.457Z,3.60
2023-02-17T09:48:00.780Z,4.67
2023-02-17T09:51:31.746Z,4.43
2023-02-17T09:55:11.224Z,5.67
2023-02-17T09:58:20.378Z,5.33
2023-02-17T10:01:27.005Z,5.13
2023-02-17T10:04:37.601Z,3.87
2023-02-17T10:07:48.035Z,5.70
2023-02-17T10:11:01.859Z,6.60
2023-02-17T10:14:10.104Z,4.13
2023-02-17T10:17:34.154Z,6.47
2023-02-17T10:20:59.876Z,6.00
2023-02-17T10:24:01.953Z,3.37
2023-02-17T10:27:28.767Z,5.13
2023-02-17T10:30:43.441Z,2.90
2023-02-17T10:34:09.251Z,2.70
2023-02-17T10:37:24.203Z,6.07
2023-02-17T10:40:28.270Z,2.53
2023-02-17T10:43:33.293Z,6.87
2023-02-17T10:46:35.580Z,3.63
2023-02-17T10:49:45.989Z,6.40
2023-02-17T10:52:49.157Z,3.93
2023-02-17T10:56:02.562Z,4.83
2023-02-17T10:59:37.954Z,3.67
2023-02-17T11:02:57.673Z,3.70
2023-02-17T11:06:05.289Z,3.37
2023-02-17T11:09:23.577Z,3.73
2023-02-17T11:12:32.605Z,5.63
2023-02-17T11:15:37.572Z,2.87
2023-02-17T11:18:47.765Z,6.43
2023-02-17T11:21:52.394Z,6.60
2023-02-17T11:25:01.606Z,3.47
2023-02-17T11:28:12.287Z,3.40
2023-02-17T11:31:29.770Z,7.73
2023-02-17T11:34:34.913Z,2.57
2023-02-17T11:37:43.481Z,5.40
2023-02-17T11:41:00.862Z,5.70
2023-02-17T11:44:02.990Z,5.23
2023-02-17T11:47:39.165Z,5.00
2023-02-17T11:50:42.183Z,2.53
2023-02-17T11:53:53.243Z,4.20
2023-02-17T11:57:01.158Z,3.30
2023-02-17T12:00:11.784Z,5.03
2023-02-17T12:03:36.615Z,7.10
2023-02-17T12:06:56.277Z,5.23
2023-02-17T12:10:05.802Z,4.33
2023-02-17T12:13:32.156Z,4.43
2023-02-17T12:16:42.868Z,3.33
2023-02-17T12:20:00.195Z,3.87
2023-02-17T12:23:39.616Z,1.80
2023-02-17T12:27:00.334Z,2.10
2023-02-17T12:30:29.768Z,1.73
2023-02-17T12:33:53.298Z,2.83
2023-02-17T12:36:58.445Z,2.10
2023-02-17T12:40:08.664Z,2.67
2023-02-17T12:43:29.562Z,4.80
2023-02-17T12:46:41.449Z,3.33
2023-02-17T12:50:00.931Z,2.93
2023-02-17T12:53:11.995Z,3.00
2023-02-17T12:56:34.132Z,1.67
2023-02-17T12:59:38.850Z,3.60
2023-02-17T13:02:41.042Z,2.33
2023-02-17T13:05:54.918Z,4.97
2023-02-17T13:09:09.126Z,4.90
2023-02-17T13:12:19.023Z,3.03
2023-02-17T13:15:32.307Z,2.17
2023-02-17T13:18:36.812Z,2.10
2023-02-17T13:21:54.001Z,2.37
2023-02-17T13:24:56.153Z,1.23
2023-02-17T13:28:01.311Z,2.53
2023-02-17T13:31:18.536Z,1.80
2023-02-17T13:34:31.805Z,1.50
2023-02-17T13:37:33.733Z,1.53
2023-02-17T13:40:41.244Z,3.87
2023-02-17T13:43:43.586Z,4.50
2023-02-17T13:46:47.448Z,1.30
2023-02-17T13:49:54.331Z,2.83
2023-02-17T13:52:57.176Z,1.97
2023-02-17T13:56:05.149Z,1.53
2023-02-17T13:59:09.782Z,1.63
2023-02-17T14:02:35.186Z,3.67
2023-02-17T14:05:44.517Z,2.23
2023-02-17T14:08:46.470Z,4.27
2023-02-17T14:11:49.547Z,2.30
2023-02-17T14:14:51.761Z,2.17
2023-02-17T14:17:54.551Z,1.87
2023-02-17T14:21:10.230Z,2.73
2023-02-17T14:24:44.583Z,1.90
2023-02-17T14:27:48.669Z,2.90
2023-02-17T14:30:51.442Z,1.60
2023-02-17T14:33:56.058Z,3.77
2023-02-17T14:37:23.521Z,5.63
2023-02-17T14:40:25.654Z,3.23
2023-02-17T14:43:28.122Z,4.70
2023-02-17T14:46:30.413Z,2.07
2023-02-17T14:49:33.267Z,3.13
2023-02-17T14:52:42.009Z,3.47
2023-02-17T14:55:53.711Z,3.53
2023-02-17T14:58:57.137Z,3.03
2023-02-17T15:01:59.684Z,4.40
2023-02-17T15:05:01.901Z,3.43
2023-02-17T15:08:04.220Z,3.23
2023-02-17T15:11:07.997Z,1.27
2023-02-17T15:14:19.280Z,2.23
2023-02-17T15:17:21.363Z,4.33
2023-02-17T15:20:23.437Z,4.70
2023-02-17T15:23:26.800Z,5.10
2023-02-17T15:26:31.120Z,3.33
2023-02-17T15:29:34.127Z,2.03
2023-02-17T15:32:36.478Z,3.23
2023-02-17T15:35:40.216Z,2.97
2023-02-17T15:38:42.592Z,3.30
2023-02-17T15:41:46.321Z,2.13
2023-02-17T15:44:51.000Z,1.43
2023-02-17T15:48:03.750Z,3.17
2023-02-17T15:51:07.769Z,1.90
2023-02-17T15:54:10.438Z,2.13
2023-02-17T15:57:24.546Z,2.83
2023-02-17T16:00:29.758Z,4.37
2023-02-17T16:03:31.966Z,1.87
2023-02-17T16:06:34.395Z,1.13
2023-02-17T16:09:38.042Z,3.37
2023-02-17T16:12:42.048Z,2.40
2023-02-17T16:15:45.364Z,2.67
2023-02-17T16:18:49.280Z,2.83
2023-02-17T16:21:51.462Z,3.47
2023-02-17T16:24:56.635Z,3.17
2023-02-17T16:27:58.995Z,5.40
2023-02-17T16:31:01.387Z,2.27
2023-02-17T16:34:03.599Z,3.77
2023-02-17T16:37:14.362Z,3.60
2023-02-17T16:40:18.445Z,1.90
2023-02-17T16:43:24.047Z,1.10
2023-02-17T16:46:37.300Z,3.50
2023-02-17T16:49:42.628Z,3.37
2023-02-17T16:52:47.736Z,2.33
2023-02-17T16:55:53.017Z,3.63
2023-02-17T16:58:55.084Z,2.70
2023-02-17T17:01:59.265Z,5.23
2023-02-17T17:05:08.368Z,1.53
2023-02-17T17:08:17.226Z,3.73
2023-02-17T17:11:24.421Z,2.17
2023-02-17T17:14:26.900Z,1.73
2023-02-17T17:17:31.408Z,1.87
2023-02-17T17:20:40.788Z,3.37
2023-02-17T17:23:47.026Z,4.47
2023-02-17T17:26:51.890Z,2.00
2023-02-17T17:29:57.647Z,1.93
2023-02-17T17:33:00.441Z,2.27
2023-02-17T17:36:03.243Z,1.93
2023-02-17T17:39:08.051Z,2.90
2023-02-17T17:42:12.237Z,2.97
2023-02-17T17:45:15.783Z,2.27
2023-02-17T17:48:21.116Z,2.57
2023-02-17T17:51:25.242Z,5.23
2023-02-17T17:54:28.014Z,4.63
2023-02-17T17:57:30.695Z,3.00
2023-02-17T18:00:34.521Z,3.93
2023-02-17T18:03:37.408Z,2.40
2023-02-17T18:06:54.746Z,6.23
2023-02-17T18:09:58.199Z,3.93
2023-02-17T18:13:01.461Z,4.07
2023-02-17T18:16:06.462Z,1.90
2023-02-17T18:19:10.766Z,1.77
2023-02-17T18:22:13.713Z,1.80
2023-02-17T18:25:16.866Z,2.13
2023-02-17T18:28:20.046Z,1.50
2023-02-17T18:31:23.432Z,3.07
2023-02-17T18:34:27.683Z,2.73
2023-02-17T18:37:30.975Z,3.27
2023-02-17T18:40:33.195Z,2.20
2023-02-17T18:43:36.508Z,2.07
2023-02-17T18:46:39.410Z,2.37
2023-02-17T18:49:42.329Z,2.10
2023-02-17T18:52:45.506Z,2.37
2023-02-17T18:55:48.606Z,4.27
2023-02-17T18:58:53.480Z,2.80
2023-02-17T19:01:56.744Z,2.80
2023-02-17T19:05:01.175Z,1.20
2023-02-17T19:08:04.624Z,2.23
2023-02-17T19:11:08.828Z,3.63
2023-02-17T19:14:12.980Z,1.23
2023-02-17T19:17:20.189Z,1.10
2023-02-17T19:20:23.229Z,1.80
2023-02-17T19:23:26.343Z,1.70
2023-02-17T19:26:28.921Z,1.43
2023-02-17T19:29:32.377Z,2.67
2023-02-17T19:32:35.561Z,4.30
2023-02-17T19:35:42.079Z,1.33
2023-02-17T19:38:47.084Z,2.40
2023-02-17T19:41:51.441Z,1.73
2023-02-17T19:44:57.742Z,2.10
2023-02-17T19:48:00.788Z,1.23
2023-02-17T19:51:09.877Z,0.60
2023-02-17T19:54:13.408Z,0.43
2023-02-17T19:57:20.161Z,2.83
2023-02-17T20:00:25.233Z,0.50
2023-02-17T20:03:28.270Z,0.73
2023-02-17T20:06:35.688Z,1.40
2023-02-17T20:09:38.866Z,1.27
2023-02-17T20:12:41.940Z,0.83
2023-02-17T20:15:45.051Z,0.93
2023-02-17T20:18:50.091Z,2.47
2023-02-17T20:21:54.531Z,1.80
2023-02-17T20:24:58.594Z,0.50
2023-02-17T20:28:01.615Z,0.70
2023-02-17T20:31:06.595Z,1.57
2023-02-17T20:34:24.650Z,0.83
2023-02-17T20:37:28.893Z,0.70
2023-02-17T20:40:32.146Z,0.67
2023-02-17T20:43:36.356Z,1.20
2023-02-17T20:46:42.105Z,0.80
2023-02-17T20:49:45.137Z,1.27
2023-02-17T20:52:52.472Z,0.60
2023-02-17T20:55:55.396Z,0.80
2023-02-17T20:58:58.362Z,1.00
2023-02-17T21:02:01.411Z,2.73
2023-02-17T21:05:04.541Z,1.03
2023-02-17T21:08:08.809Z,0.70
2023-02-17T21:11:11.474Z,0.67
2023-02-17T21:14:14.985Z,1.60
2023-02-17T21:17:19.453Z,1.17
2023-02-17T21:20:22.913Z,0.87
2023-02-17T21:23:26.376Z,1.67
2023-02-17T21:26:29.202Z,1.83
2023-02-17T21:29:31.506Z,1.37
2023-02-17T21:32:34.331Z,2.20
2023-02-17T21:35:37.245Z,0.60
2023-02-17T21:38:40.446Z,3.53
2023-02-17T21:41:43.434Z,0.80
2023-02-17T21:44:55.317Z,3.00
2023-02-17T21:47:58.920Z,1.27
2023-02-17T21:51:09.622Z,2.33
2023-02-17T21:54:12.549Z,1.33
2023-02-17T21:57:14.675Z,1.77
2023-02-17T22:00:17.117Z,1.60
2023-02-17T22:03:19.186Z,1.30
2023-02-17T22:06:27.511Z,1.53
2023-02-17T22:09:29.676Z,2.80
2023-02-17T22:12:31.818Z,1.33
2023-02-17T22:15:34.822Z,2.17
2023-02-17T22:18:36.862Z,1.20
2023-02-17T22:21:39.117Z,1.57
2023-02-17T22:24:41.075Z,1.10
2023-02-17T22:27:43.101Z,1.20
2023-02-17T22:30:51.892Z,2.90
2023-02-17T22:33:55.737Z,1.80
2023-02-17T22:36:57.703Z,2.40
2023-02-17T22:39:59.698Z,2.43
2023-02-17T22:43:01.641Z,1.57
2023-02-17T22:46:04.087Z,1.73
2023-02-17T22:49:06.263Z,2.37
2023-02-17T22:52:08.573Z,1.80
2023-02-17T22:55:10.518Z,1.77
2023-02-17T22:58:12.469Z,1.27
2023-02-17T23:01:23.273Z,1.70
2023-02-17T23:04:25.371Z,1.80
2023-02-17T23:07:27.424Z,1.10
2023-02-17T23:10:29.430Z,3.13
2023-02-17T23:13:32.238Z,2.80
2023-02-17T23:16:34.277Z,1.40
2023-02-17T23:19:38.024Z,2.20
2023-02-17T23:22:40.004Z,2.43
2023-02-17T23:25:47.816Z,2.37
2023-02-17T23:28:49.745Z,2.93
2023-02-17T23:31:52.043Z,1.87
2023-02-17T23:34:54.081Z,1.60
2023-02-17T23:37:56.404Z,2.27
2023-02-17T23:40:58.367Z,3.30
2023-02-17T23:44:00.294Z,1.10
2023-02-17T23:47:03.056Z,2.13
2023-02-17T23:50:06.297Z,1.47
2023-02-17T23:53:09.151Z,2.63
2023-02-17T23:56:22.077Z,3.13
2023-02-17T23:59:24.094Z,1.20
